Nicolò De Angelis

Recruteur en chef - Spezia
20 Janv 2028
Jeudi
Processus

Personnalité

Adaptabilité (1) Ambition (19) Controverse (1) Loyauté (18) Pression (6) Professionnalisme (4) Sportivité (13) Tempérament (8)

Profil

Style d'entraînement Démocratique
Diplôme Continental Pro
Détermination 10
Gestion des joueurs 5
Motivation 12
Discipline 8
Satisfaction professionnelle
100%
Fatigue
0%
Rôle Recruteur en chef
Salaire 59.6K p/s
Contrat 14.03.2030

Performance

Comportement Bon
Efficacité de l'entraînement
31%
Développement des joueurs
55%
Prévention des blessures
25%
Mise en place tactique
20%

Événements récents

En formation continue maintenant
A participé à une réunion de recrutement maintenant
A participé à une réunion de recrutement maintenant
A recommandé une cible de transfert maintenant
A recommandé une cible de transfert maintenant
A recommandé une cible de transfert maintenant
A présenté un dossier au conseil maintenant
En formation continue 7j

Suivi en cours

220
Joueur Club Statut Capacité Confiance Observé Dernière observation Dernier vote
Lorenzo Bordo Monopoli Perdu 105 / 112 76% 1 17.01.2028 Approuver
Lewis Morgan SuperSport United Perdu 125 / 140 40% 1 10.01.2028 -
Yegor Kortsov Dinamo Brest Actif 115 / 105 40% 1 10.01.2028 -
Lucas Camejo River Plate Actif 82 / 87 40% 3 05.01.2028 -
Nicolas Sport Recife Actif 111 / 102 40% 2 05.01.2028 -
Ángel Aguayo Sol de America Actif 98 / 108 40% 1 05.01.2028 -
Mao Hosoya Everton Négociation 134 / 135 67% 1 01.01.2028 Approuver
Santiago Hezze Chaves Actif 132 / 133 62% 1 01.01.2028 Approuver
Jefry Zapata Danubio Perdu 118 / 118 67% 1 01.01.2028 Approuver
Juan Morán Godoy Cruz Actif 111 / 105 40% 2 31.12.2027 -
Avery Appiah Ajax Actif 120 / 115 40% 1 31.12.2027 -
Bernardo Lima Porto Actif 112 / 110 40% 2 27.12.2027 -
Jovan Milosavljević Kalmar FF Actif 108 / 116 40% 1 27.12.2027 -
Mauro Carrizo Atlético Tucumán Actif 102 / 114 40% 5 26.12.2027 -
Jayden Joseph Bradford City Actif 92 / 94 40% 1 26.12.2027 -
Niccolò Fortini Fiorentina Actif 134 / 137 40% 3 25.12.2027 -
Hosea Michael Remo Stars Actif 92 / 82 40% 5 25.12.2027 -
Adam Boufandar Siracusa Actif 96 / 104 40% 1 25.12.2027 -
Jofre Torrents Ajax Actif 134 / 128 40% 6 24.12.2027 -
Mikkel Hope Haugesund Actif 107 / 118 40% 4 24.12.2027 -
Jhon Cortez Barranquilla Actif 81 / 92 40% 2 24.12.2027 -
Tobias Moi Bodo/Glimt Actif 102 / 126 40% 3 23.12.2027 -
Nejc Viher NK Maribor Actif 106 / 116 40% 1 23.12.2027 -
Olaniyi Saheed Kwara United Actif 105 / 103 40% 2 20.12.2027 -
Leonardo Mendicino Bari Actif 119 / 135 40% 1 20.12.2027 -
Rivaldo Grobler Free State Stars Actif 103 / 101 40% 2 19.12.2027 -
Tobias Slotsager Casertana Actif 117 / 117 40% 3 17.12.2027 -
Tiago Parente Benfica Actif 111 / 122 40% 4 16.12.2027 -
Hervin Goyes Deportivo Pasto Actif 112 / 111 40% 6 16.12.2027 -
Tyson Pearce St. Louis CITY SC Actif 94 / 108 40% 5 15.12.2027 -
Cristian Guzmán Universitario Popayan Actif 91 / 90 40% 1 15.12.2027 -
Darryl Bakola Padova Actif 116 / 120 40% 6 14.12.2027 -
Aiden Hezarkhani Real Salt Lake Actif 93 / 91 40% 1 14.12.2027 -
Sascha Britschgi Padova Actif 117 / 126 40% 6 13.12.2027 -
Gift Udoh Ikorodu City Actif 98 / 78 40% 7 13.12.2027 -
Juan Camilo Córdoba Deportivo Pereira Actif 84 / 98 40% 4 13.12.2027 -
Miguel Figueiredo Cesena Actif 117 / 118 40% 1 12.12.2027 -
Jorthy Mokio ADO Den Haag Actif 134 / 131 40% 1 12.12.2027 -
Felipe Obradovich Ferro Carril Oeste Actif 111 / 115 40% 1 11.12.2027 -
Aleko Basiladze Slovan Liberec Actif 104 / 112 40% 1 11.12.2027 -
Matteo Palma Udinese Actif 119 / 138 40% 3 09.12.2027 -
Eduardo Felicíssimo Sporting CP Actif 116 / 129 40% 1 09.12.2027 -
Harrison Armstrong Everton Actif 138 / 140 40% 1 09.12.2027 -
Theodor Lundbergh Malmo FF Actif 92 / 100 40% 3 08.12.2027 -
Narcis Ilaş CFR Cluj Actif 103 / 113 40% 3 07.12.2027 -
Gonçalo Oliveira Benfica Actif 111 / 121 40% 2 06.12.2027 -
Dmitry Pestryakov Dinamo Moscow Actif 118 / 120 40% 4 06.12.2027 -
Colin Guske Orlando City Actif 94 / 108 40% 2 05.12.2027 -
Joel Ezra Enyimba Actif 104 / 88 40% 2 03.12.2027 -
Davide Bartesaghi AC Milan Actif 138 / 133 40% 1 03.12.2027 -
Tiago Gordillo San Miguel Actif 81 / 100 40% 3 02.12.2027 -
Eddy Kouadio Crotone Actif 106 / 113 40% 2 01.12.2027 -
Andrea Cogoni Cosenza Actif 104 / 121 40% 1 01.12.2027 -
Daniel Banjaqui Benfica Actif 121 / 123 40% 1 01.12.2027 -
Alejandro Almaraz Nueva Chicago Actif 105 / 112 40% 3 25.11.2027 -
Kieran Morgan Queens Park Rangers Actif 125 / 134 40% 2 24.11.2027 -
Rufai Mohammed IF Elfsborg Actif 115 / 112 40% 1 24.11.2027 -
Mattia Puzone Siracusa Actif 99 / 110 40% 2 23.11.2027 -
Harbor Miller LA Galaxy Actif 94 / 96 40% 2 23.11.2027 -
Sam Curtis Cambridge United Actif 102 / 105 40% 2 22.11.2027 -
Diego Vargas San Marcos de Arica Actif 95 / 94 40% 2 21.11.2027 -
Matteo Milan Cheltenham Town Actif 91 / 89 40% 2 21.11.2027 -
Celías Ingenthron Vélez Actif 114 / 129 40% 2 18.11.2027 -
Emiliano Bértoli Patronato Actif 95 / 91 40% 1 14.11.2027 -
Samuel Posada Leones Actif 91 / 89 40% 5 11.11.2027 -
Fillip Jenssen Riise Stabaek Actif 90 / 103 40% 5 09.11.2027 -
Nazareno Roselli Defensa y Justicia Actif 114 / 115 40% 1 08.11.2027 -
Somtochuwku Ezenabo Kwara United Actif 80 / 93 40% 1 05.11.2027 -
Alessandro Capello Arezzo Actif 116 / 116 42% 1 / 1m 03.11.2027 -
João Costa Arezzo Actif 85 / 88 30% 1 / 1m 03.11.2027 -
Mattia Damiani Arezzo Actif 111 / 114 30% 1 / 1m 03.11.2027 -
Frankie Westfield Philadelphia Union Actif 108 / 116 40% 1 02.11.2027 -
Matías Gómez Granada Actif 124 / 134 40% 1 29.10.2027 -
Juan Giménez Celta Actif 121 / 127 40% 1 26.10.2027 -
Kwesi Sorotu Badori Berekum Chelsea Actif 86 / 118 40% 1 22.10.2027 -
Víctor Reyes Deportes Tolima Actif 89 / 106 40% 1 20.10.2027 -
Dominik Chong Qui Atlanta United FC Actif 93 / 92 40% 2 19.10.2027 -
David Odogu AC Milan Actif 135 / 130 40% 1 14.10.2027 -
Mohamed Bolivar Barranquilla Actif 84 / 103 40% 1 14.10.2027 -
Ignacio Fernández Boston River Actif 88 / 108 40% 2 12.10.2027 -
Uche Jaguar Kwara United Actif 88 / 91 40% 1 12.10.2027 -
José Correa Deportivo Tachira Actif 89 / 101 40% 1 12.10.2027 -
Kelechi Onwe Ikorodu City Actif 94 / 90 40% 1 11.10.2027 -
Christ Inao Oulaï Fiorentina Actif 140 / 153 40% 1 11.10.2027 -
Chibueze Oputa Rangers International Actif 83 / 107 40% 1 09.10.2027 -
Álvaro Navoni Tigre Actif 89 / 93 40% 1 09.10.2027 -
Julián Bazán Philadelphia Union Actif 117 / 122 40% 1 08.10.2027 -
Agustín Obregón River Plate Actif 106 / 111 40% 1 08.10.2027 -
Daniel Gomez Valledupar Actif 92 / 86 40% 1 23.08.2027 -
Martin Georgiev Aris Thessaloniki Actif 117 / 130 40% 1 23.08.2027 -
Zane Albarus Cambridge United Actif 96 / 113 40% 2 09.08.2027 -
Veljko Milosavljević Aston Villa Actif 143 / 151 40% 1 09.08.2027 -
Riley Owen Trento Actif 105 / 104 40% 1 05.07.2027 -
Andrea Bertoncini Carpi Actif 97 / 91 40% 1 05.07.2027 -
Dion Beljo Standard Liege Perdu 131 / 132 66% 1 01.06.2027 Approuver
Percy Jali Free State Stars Actif 102 / 111 40% 1 06.02.2027 -
Matvey Kislyak CSKA Moscow Actif 141 / 153 40% 1 06.02.2027 -
Raymond Agyemang Aduana Stars Actif 73 / 92 40% 1 04.02.2027 -
Pietro Reggiori Pro Patria Actif 97 / 100 40% 1 04.02.2027 -
Tsvetoslav Marinov Spartak 1918 Actif 95 / 85 40% 1 02.02.2027 -
Josh King Chelsea Actif 139 / 141 40% 1 01.02.2027 -
Matteo Rover Reggiana Actif 125 / 115 40% 2 11.01.2027 -
Marcelo Allende Mamelodi Sundowns Actif 141 / 126 40% 1 11.01.2027 -
Antoine Bernede Hellas Verona Actif 124 / 133 40% 1 11.01.2027 -
Tijjani Noslin Lazio Actif 142 / 145 40% 3 30.12.2026 -
Bongani Mothiba SuperSport United Actif 73 / 80 40% 2 30.12.2026 -
Tamerlan Musaev CSKA Moscow Perdu 126 / 130 40% 1 30.12.2026 -
Papa Ndiaga Yade Oleksandriya Actif 101 / 110 40% 1 29.12.2026 -
José Martínes CSKA 1948 Actif 110 / 94 40% 1 28.12.2026 -
Jacopo Desogus AlbinoLeffe Actif 108 / 105 40% 1 28.12.2026 -
Danylo Kravchuk LNZ Actif 90 / 93 40% 1 28.12.2026 -
Jens Odgaard Bologna Actif 132 / 144 40% 9 27.12.2026 Observer
Konan N'Dri Lecce Actif 131 / 120 40% 2 25.12.2026 -
David Romero Parma Actif 124 / 136 40% 2 25.12.2026 -
Lucas Da Cunha Como Actif 142 / 140 40% 1 25.12.2026 -
Nicolò Cambiaghi Bologna Actif 147 / 142 40% 1 24.12.2026 -
Lorenzo Ignacchiti Empoli Actif 113 / 121 40% 1 24.12.2026 -
Evidence Makgopa Orlando Pirates Actif 105 / 123 40% 3 23.12.2026 -
Ruben van Bommel Ferencvaros Actif 130 / 142 40% 3 20.12.2026 -
Mduduzi Shabalala Kaizer Chiefs Actif 117 / 119 40% 2 20.12.2026 -
Emanuele Schimmenti Potenza Actif 116 / 117 40% 1 20.12.2026 -
Kenan Dervišagić Floriana Actif 108 / 102 40% 1 20.12.2026 -
Romano Schmid Frosinone Actif 145 / 142 40% 3 16.12.2026 -
Nadir Zortea Bologna Actif 132 / 130 40% 2 16.12.2026 -
Rômulo RB Leipzig Actif 139 / 141 40% 2 16.12.2026 -
Nicolás Cordero Aldosivi Perdu 126 / 125 40% 2 14.12.2026 -
Ammar Ramadan DAC Dunajska Streda Perdu 127 / 113 40% 2 14.12.2026 -
Alessio Zerbin Frosinone Actif 135 / 122 40% 3 14.12.2026 -
Tommaso Pobega Bologna Actif 142 / 143 40% 1 13.12.2026 -
Oswin Appollis Orlando Pirates Actif 112 / 119 40% 1 10.12.2026 -
Cristian Shpendi Cesena Actif 131 / 139 40% 1 10.12.2026 -
Amin Sarr Hellas Verona Actif 125 / 131 40% 2 05.12.2026 -
Raoul Bellanova Atalanta Actif 147 / 152 40% 2 04.12.2026 -
Eren Aydın Zira Actif 115 / 115 40% 2 04.12.2026 -
Milán Tóth Vasas Actif 97 / 113 40% 1 02.12.2026 -
Camillo Tavernelli Arezzo Actif 122 / 108 40% 1 02.12.2026 -
Jacques Siwe Rubin Actif 124 / 101 40% 1 01.12.2026 -
Etiosa Ighodaro Kaizer Chiefs Actif 118 / 120 40% 1 01.12.2026 -
Willem Geubbels Lecce Actif 133 / 119 40% 1 01.12.2026 -
Bamba Dieng Crvena Zvezda Actif 125 / 135 40% 3 29.11.2026 -
Kwame Opoku Asante Kotoko Actif 104 / 99 40% 1 29.11.2026 -
Youssoufa Moukoko FC Copenhagen Actif 119 / 129 40% 2 28.11.2026 -
Stiven Shpendi Empoli Actif 117 / 124 40% 1 28.11.2026 -
Juan Manuel Boselli Krasnodar Actif 133 / 106 40% 2 27.11.2026 -
Bénie Traoré New York City Actif 120 / 122 40% 4 26.11.2026 -
Sead Hakšabanović Malmo FF Actif 134 / 133 40% 3 26.11.2026 -
Gianluca Contini Siracusa Actif 96 / 107 40% 1 25.11.2026 -
Berna CSKA 1948 Actif 113 / 112 40% 1 25.11.2026 -
Bernat Guiu Virtus Entella Actif 118 / 107 40% 1 25.11.2026 -
Luciano Gondou CSKA Moscow Actif 128 / 135 40% 1 24.11.2026 -
Emanuele Pecorino Catanzaro Actif 102 / 100 40% 1 24.11.2026 -
Petar Stanić Ludogorets Actif 126 / 119 40% 2 22.11.2026 -
Santiago Pierotti Lecce Actif 124 / 130 40% 2 22.11.2026 -
Tshepang Moremi Orlando Pirates Actif 122 / 113 40% 1 22.11.2026 -
Juan Miranda Bologna Actif 148 / 130 40% 1 22.11.2026 -
Diego García Malmo FF Actif 118 / 110 40% 1 22.11.2026 -
Fiete Arp OB Actif 119 / 137 40% 2 20.11.2026 -
Pablo Rodríguez Lech Actif 136 / 119 40% 1 17.11.2026 -
David Miculescu FCSB Actif 120 / 103 40% 2 16.11.2026 -
Everton Bala Levski Actif 139 / 111 40% 2 16.11.2026 -
Mandla Mahlangu Ajax Cape Town Actif 116 / 91 40% 4 15.11.2026 -
Sota Kitano Luzern Actif 126 / 117 40% 1 14.11.2026 -
Ibrahim Adel FC Nordsjaelland Actif 130 / 126 40% 1 14.11.2026 -
Kévin Denkey FC Cincinnati Actif 123 / 125 40% 1 13.11.2026 -
Rilind Nivokazi Sion Actif 124 / 110 40% 1 10.11.2026 -
Ramiro Ruiz Rodríguez Atlético Tucumán Actif 119 / 114 40% 1 10.11.2026 -
Themba Ngcobo SuperSport United Actif 129 / 128 40% 3 09.11.2026 -
Max Fenger IFK Goteborg Actif 129 / 113 40% 2 07.11.2026 -
Emanuele Valeri Parma Actif 127 / 139 40% 1 07.11.2026 -
Leonardo Campana New England Revolution Actif 132 / 121 40% 1 03.11.2026 -
Peter Christiansen Viking Actif 112 / 110 40% 1 03.11.2026 -
Giacomo Raspadori Atalanta Actif 150 / 134 40% 3 02.11.2026 -
Christian Krasnodar Actif 136 / 135 40% 2 31.10.2026 -
Agustín Módica Gimnasia y Esgrima Actif 113 / 113 40% 1 28.10.2026 -
Alexander Aravena Portland Timbers Actif 122 / 123 40% 2 27.10.2026 -
Aleksa Terzić Frosinone Actif 133 / 121 40% 1 26.10.2026 -
Georginio Rutter Brighton Actif 146 / 151 40% 3 23.10.2026 -
Tomás González Piast Actif 106 / 131 40% 1 23.10.2026 -
Ilyas Ansah Hull City Actif 132 / 131 40% 1 22.10.2026 -
Jesus Ferreira Seattle Sounders Actif 126 / 123 40% 1 19.10.2026 -
Xavi Simons Tottenham Actif 158 / 164 40% 1 16.10.2026 -
Andri Guðjohnsen Blackburn Rovers Actif 125 / 121 40% 1 16.10.2026 -
Luis Vázquez Birmingham Actif 132 / 127 40% 1 15.10.2026 -
Adnan Courtois KV Oostende Actif 139 / 125 40% 2 14.10.2026 -
Mattia Felici Cagliari Actif 130 / 125 40% 2 11.10.2026 -
Joe Gelhardt Hull City Actif 123 / 128 40% 2 11.10.2026 -
Tommy Conway Middlesbrough Actif 124 / 122 40% 1 11.10.2026 -
Rômulo Tigres Actif 129 / 121 40% 1 10.10.2026 -
Max Bird Birmingham Actif 132 / 127 40% 1 10.10.2026 -
Telasco Segovia Inter Miami CF Actif 137 / 126 40% 1 10.10.2026 -
Rico Lewis Manchester City Actif 154 / 149 40% 1 09.10.2026 -
Dávid Strelec Middlesbrough Actif 134 / 146 40% 1 09.10.2026 -
Agustín Paz Progreso Actif 115 / 117 40% 2 05.10.2026 -
August Priske Birmingham Actif 127 / 122 40% 1 05.10.2026 -
Rafael Navarro St. Louis CITY SC Actif 119 / 126 40% 2 02.10.2026 -
Luca Martínez Dupuy Godoy Cruz Actif 119 / 128 40% 1 02.10.2026 -
Cheikh Sabaly Vancouver Whitecaps Actif 130 / 126 40% 2 29.09.2026 -
Richard Koné Queens Park Rangers Actif 116 / 127 40% 1 27.09.2026 -
Lorent Tolaj Plymouth Argyle Actif 112 / 127 40% 2 26.09.2026 -
Dom Ballard Leyton Orient Actif 122 / 128 40% 1 26.09.2026 -
Dejan Joveljić Seattle Sounders Actif 128 / 126 40% 3 24.09.2026 -
Alexander Díaz Deportivo Riestra Actif 116 / 109 40% 1 24.09.2026 -
Agustín Anello Philadelphia Union Actif 130 / 116 40% 1 24.09.2026 -
Facundo Mura Inter Miami CF Actif 130 / 128 40% 2 23.09.2026 -
Lukas Nmecha Leeds United Actif 127 / 122 40% 1 23.09.2026 -
Alexis Cuello San Lorenzo Actif 118 / 126 40% 1 20.09.2026 -
Dwight McNeil Crystal Palace Actif 132 / 144 40% 1 18.09.2026 -
Tyrese Campbell Sheffield United Actif 118 / 120 40% 1 18.09.2026 -
Louis Munteanu DC United Actif 129 / 115 40% 2 17.09.2026 -
Matías Fernández Independiente Rivadavia Actif 125 / 115 40% 1 17.09.2026 -
Wessam Abou Ali Columbus Crew Actif 137 / 132 40% 1 15.09.2026 -
Antony Portland Timbers Actif 130 / 123 40% 1 15.09.2026 -
Mateo Zuleta Once Caldas Actif 124 / 127 40% 1 15.09.2026 -
Misael Sosa Godoy Cruz Actif 117 / 115 40% 1 12.09.2026 -
João Klauss LA Galaxy Actif 129 / 120 40% 1 17.08.2026 -
El Hadji Malick Diouf Brentford Actif 138 / 145 40% 1 07.08.2026 -
Aaron Hickey Brentford Actif 141 / 148 40% 1 07.08.2026 -
Cody Gakpo Liverpool Actif 156 / 159 40% 1 07.08.2026 -
Nahuel Molina AS Roma Actif 150 / 145 40% 1 02.08.2026 -
Sergio Reguilón Inter Miami CF Actif 141 / 135 40% 1 02.08.2026 -